Time;durP1;ratioP1;P1;durP2;ratioP2;P2;SDS_P1;SDS_P2;PMS_P1;PMS_P2;Temp;Humidity;BMP_temperature;BMP_pressure;BME280_temperature;BME280_humidity;BME280_pressure;Samples;Min_cycle;Max_cycle;Signal;HPM_P1;HPM_P2
2022/11/28 00:00:01;;;;;;;9.73;7.05;;;6.40;99.90;;;;;;5089972;28;20048;-54
2022/11/28 00:02:26;;;;;;;9.85;7.55;;;6.30;99.90;;;;;;5086757;28;20040;-52
2022/11/28 00:04:52;;;;;;;10.55;7.63;;;6.30;99.90;;;;;;5086829;28;20067;-53
2022/11/28 00:07:18;;;;;;;8.27;7.00;;;6.30;99.90;;;;;;5086727;28;20505;-51
2022/11/28 00:09:43;;;;;;;9.40;7.47;;;6.30;99.90;;;;;;5088043;28;20036;-52
2022/11/28 00:12:09;;;;;;;9.10;7.30;;;6.30;99.90;;;;;;5087376;28;20086;-54
2022/11/28 00:14:35;;;;;;;8.10;6.93;;;6.40;99.90;;;;;;5083580;28;20555;-52
2022/11/28 00:17:00;;;;;;;8.70;7.55;;;6.40;99.90;;;;;;5084613;28;20434;-53
2022/11/28 00:19:26;;;;;;;9.75;7.32;;;6.40;99.90;;;;;;5087651;28;20044;-54
2022/11/28 00:21:51;;;;;;;11.95;8.20;;;6.40;99.90;;;;;;5085534;28;20040;-52
2022/11/28 00:24:17;;;;;;;8.65;7.30;;;6.40;99.90;;;;;;5086492;28;20478;-52
2022/11/28 00:26:43;;;;;;;8.65;7.65;;;6.40;99.90;;;;;;5089371;28;20040;-54
2022/11/28 00:29:09;;;;;;;8.63;7.25;;;6.40;99.90;;;;;;5087301;28;20040;-54
2022/11/28 00:31:41;;;;;;;8.43;7.45;;;6.40;99.90;;;;;;5091292;28;20047;-52
2022/11/28 00:34:08;;;;;;;10.45;7.45;;;6.40;99.90;;;;;;5093757;28;20044;-54
2022/11/28 00:36:34;;;;;;;8.93;7.33;;;6.40;99.90;;;;;;5092938;28;20375;-54
2022/11/28 00:38:59;;;;;;;7.90;6.95;;;6.40;99.90;;;;;;5093954;28;20042;-53
2022/11/28 00:41:28;;;;;;;8.68;7.03;;;6.40;99.90;;;;;;5093558;28;20044;-53
2022/11/28 00:43:54;;;;;;;7.78;6.72;;;6.50;99.90;;;;;;5093404;28;20036;-55
2022/11/28 00:46:21;;;;;;;8.75;7.70;;;6.50;99.90;;;;;;5093939;28;20096;-52
2022/11/28 00:48:48;;;;;;;11.07;7.57;;;6.50;99.90;;;;;;5093721;28;20040;-51
2022/11/28 00:51:17;;;;;;;9.10;7.72;;;6.50;99.90;;;;;;5093768;28;20143;-54
2022/11/28 00:53:44;;;;;;;8.95;7.40;;;6.50;99.90;;;;;;5093894;28;20051;-51
2022/11/28 00:56:11;;;;;;;8.30;7.38;;;6.40;99.90;;;;;;5086074;28;20056;-53
2022/11/28 00:58:38;;;;;;;7.80;6.95;;;6.50;99.90;;;;;;5081036;28;20115;-55
2022/11/28 01:01:14;;;;;;;7.97;7.18;;;6.50;99.90;;;;;;5081963;28;20076;-56
2022/11/28 01:03:40;;;;;;;8.18;7.25;;;6.50;99.90;;;;;;5085892;28;20504;-51
2022/11/28 01:06:07;;;;;;;9.55;7.65;;;6.50;99.90;;;;;;5090212;28;20044;-52
2022/11/28 01:08:33;;;;;;;9.38;7.80;;;6.50;99.90;;;;;;5087401;28;20036;-53
2022/11/28 01:10:59;;;;;;;8.77;7.38;;;6.60;99.90;;;;;;5087932;28;20138;-54
2022/11/28 01:13:25;;;;;;;7.60;6.88;;;6.50;99.90;;;;;;5084957;28;20051;-51
2022/11/28 01:15:51;;;;;;;8.20;7.28;;;6.50;99.90;;;;;;5084461;28;20493;-52
2022/11/28 01:18:16;;;;;;;8.23;7.10;;;6.60;99.90;;;;;;5085708;28;20032;-52
2022/11/28 01:20:42;;;;;;;10.13;7.40;;;6.60;99.90;;;;;;5085301;28;20044;-51
2022/11/28 01:23:08;;;;;;;10.70;7.47;;;6.60;99.90;;;;;;5090722;28;20040;-51
2022/11/28 01:25:34;;;;;;;10.15;7.43;;;6.60;99.90;;;;;;5086414;28;20062;-55
2022/11/28 01:27:59;;;;;;;9.25;7.20;;;6.60;99.90;;;;;;5083271;28;20127;-53
2022/11/28 01:30:25;;;;;;;9.32;7.13;;;6.60;99.90;;;;;;5090609;28;20126;-53
2022/11/28 01:32:51;;;;;;;11.32;7.38;;;6.60;99.90;;;;;;5093239;28;20166;-54
2022/11/28 01:35:16;;;;;;;8.02;7.22;;;6.60;99.90;;;;;;5092882;28;20481;-52
2022/11/28 01:37:42;;;;;;;7.82;7.10;;;6.60;99.90;;;;;;5093235;28;20047;-52
2022/11/28 01:40:10;;;;;;;8.90;7.07;;;6.60;99.90;;;;;;5085725;28;20378;-54
2022/11/28 01:42:36;;;;;;;7.80;7.00;;;6.70;99.90;;;;;;5085454;28;20040;-51
2022/11/28 01:45:15;;;;;;;9.32;7.18;;;6.70;99.90;;;;;;5085772;28;20040;-52
2022/11/28 01:47:42;;;;;;;8.10;7.35;;;6.70;99.90;;;;;;5086645;28;20040;-51
2022/11/28 01:50:08;;;;;;;8.25;7.13;;;6.70;99.90;;;;;;5091634;28;20041;-52
2022/11/28 01:52:37;;;;;;;10.32;7.50;;;6.70;99.90;;;;;;5086805;28;20036;-51
2022/11/28 01:55:05;;;;;;;9.40;7.93;;;6.70;99.90;;;;;;5083086;28;20052;-51
2022/11/28 01:57:31;;;;;;;9.05;7.25;;;6.70;99.90;;;;;;5081489;28;20055;-50
2022/11/28 02:00:12;;;;;;;9.70;7.82;;;6.70;99.90;;;;;;5085905;28;20032;-50
2022/11/28 02:02:49;;;;;;;8.95;7.57;;;6.70;99.90;;;;;;5079942;28;20039;-52
2022/11/28 02:05:16;;;;;;;9.00;7.95;;;6.80;99.90;;;;;;5085308;28;20044;-49
2022/11/28 02:07:43;;;;;;;9.82;7.53;;;6.80;99.90;;;;;;5080235;28;20052;-52
2022/11/28 02:10:14;;;;;;;8.65;7.60;;;6.80;99.90;;;;;;5083581;28;20123;-54
2022/11/28 02:12:45;;;;;;;9.60;7.85;;;6.80;99.90;;;;;;5082544;28;20123;-51
2022/11/28 02:15:50;;;;;;;8.23;7.43;;;6.80;99.90;;;;;;5078504;28;20082;-51
2022/11/28 02:18:26;;;;;;;9.43;7.90;;;6.90;99.90;;;;;;5084173;28;20048;-51
2022/11/28 02:21:29;;;;;;;9.15;7.45;;;6.90;99.90;;;;;;5085009;28;20128;-50
2022/11/28 02:23:54;;;;;;;9.95;7.97;;;6.90;99.90;;;;;;5084735;28;20048;-51
2022/11/28 02:26:43;;;;;;;9.38;7.70;;;6.90;99.90;;;;;;5084689;28;20032;-50
2022/11/28 02:29:45;;;;;;;9.00;7.63;;;6.90;99.90;;;;;;5085153;28;20119;-49
2022/11/28 02:32:35;;;;;;;9.48;7.95;;;6.90;99.90;;;;;;5085327;28;20386;-49
2022/11/28 02:35:10;;;;;;;8.90;7.78;;;7.00;99.90;;;;;;5096312;28;20555;-51
2022/11/28 02:37:52;;;;;;;8.80;7.90;;;7.00;99.90;;;;;;5096569;28;20048;-50
2022/11/28 02:40:35;;;;;;;12.15;7.95;;;7.00;99.90;;;;;;5083754;28;20036;-50
2022/11/28 02:43:39;;;;;;;10.75;8.70;;;7.00;99.90;;;;;;5092757;28;20036;-50
2022/11/28 02:46:18;;;;;;;11.63;8.40;;;7.00;99.90;;;;;;5089516;28;20032;-51
2022/11/28 02:48:53;;;;;;;8.65;7.75;;;7.10;99.90;;;;;;5089743;28;20044;-50
2022/11/28 02:51:42;;;;;;;11.18;8.90;;;7.10;99.90;;;;;;5089569;28;20082;-49
2022/11/28 02:54:14;;;;;;;9.48;8.32;;;7.10;99.90;;;;;;5092131;28;20498;-49
2022/11/28 02:56:47;;;;;;;10.35;8.32;;;7.20;99.90;;;;;;5088372;28;20961;-50
2022/11/28 02:59:44;;;;;;;8.80;7.72;;;7.20;99.90;;;;;;5090665;28;20120;-49
2022/11/28 03:02:15;;;;;;;8.95;8.02;;;7.20;99.90;;;;;;5084002;28;20382;-51
2022/11/28 03:04:58;;;;;;;9.32;8.43;;;7.20;99.90;;;;;;5091529;28;20485;-49
2022/11/28 03:07:53;;;;;;;9.65;8.30;;;7.20;99.90;;;;;;5088330;28;20542;-49
2022/11/28 03:10:43;;;;;;;10.18;9.07;;;7.20;99.90;;;;;;5080073;28;20048;-50
2022/11/28 03:13:46;;;;;;;13.00;9.02;;;7.30;99.90;;;;;;5087094;28;20075;-49
2022/11/28 03:16:26;;;;;;;10.38;8.00;;;7.30;99.90;;;;;;5084746;28;20044;-51
2022/11/28 03:19:30;;;;;;;11.07;8.75;;;7.30;99.90;;;;;;5085548;28;20123;-53
2022/11/28 03:22:33;;;;;;;9.38;8.25;;;7.30;99.90;;;;;;5073707;28;20513;-51
2022/11/28 03:25:22;;;;;;;11.57;8.73;;;7.30;99.90;;;;;;5086136;28;20123;-50
2022/11/28 03:28:14;;;;;;;11.07;8.95;;;7.30;99.90;;;;;;5088322;28;20439;-51
2022/11/28 03:30:59;;;;;;;11.23;9.43;;;7.40;99.90;;;;;;5104487;27;20135;-50
2022/11/28 03:33:29;;;;;;;10.18;8.95;;;7.40;99.90;;;;;;5089248;28;20362;-52
2022/11/28 03:36:00;;;;;;;12.50;10.35;;;7.30;99.90;;;;;;5094845;28;20044;-53
2022/11/28 03:38:40;;;;;;;13.90;10.20;;;7.40;99.90;;;;;;5098386;28;20803;-55
2022/11/28 03:41:26;;;;;;;12.98;10.57;;;7.40;99.90;;;;;;5087208;28;20047;-52
2022/11/28 03:43:57;;;;;;;12.45;10.63;;;7.40;99.90;;;;;;5094095;28;20075;-54
2022/11/28 03:46:26;;;;;;;12.00;10.73;;;7.30;99.90;;;;;;5093753;28;20069;-52
2022/11/28 03:48:56;;;;;;;14.77;11.32;;;7.40;99.90;;;;;;5090340;28;20052;-54
2022/11/28 03:51:35;;;;;;;14.02;11.60;;;7.30;99.90;;;;;;5090223;28;20032;-52
2022/11/28 03:54:20;;;;;;;12.95;11.32;;;7.30;99.90;;;;;;5086051;28;20036;-55
2022/11/28 03:57:10;;;;;;;15.10;11.73;;;7.30;99.90;;;;;;5087470;28;20044;-54
2022/11/28 03:59:57;;;;;;;17.20;13.18;;;7.30;99.90;;;;;;5087884;28;20674;-54
2022/11/28 04:02:37;;;;;;;14.02;12.57;;;7.30;99.90;;;;;;5087484;28;20047;-52
2022/11/28 04:05:12;;;;;;;15.18;12.50;;;7.30;99.90;;;;;;5086711;28;20062;-52
2022/11/28 04:08:02;;;;;;;16.35;13.18;;;7.30;99.90;;;;;;5086958;28;20171;-54
2022/11/28 04:10:33;;;;;;;15.70;13.25;;;7.30;99.90;;;;;;5089546;28;20039;-51
2022/11/28 04:13:03;;;;;;;15.82;13.07;;;7.30;99.90;;;;;;5074466;28;20036;-53
2022/11/28 04:15:37;;;;;;;16.27;13.50;;;7.30;99.90;;;;;;5087037;28;20127;-50
2022/11/28 04:18:29;;;;;;;15.65;12.90;;;7.40;99.90;;;;;;5084494;28;20118;-50
2022/11/28 04:21:21;;;;;;;15.65;13.88;;;7.40;99.90;;;;;;5083989;28;20153;-52
2022/11/28 04:23:48;;;;;;;17.10;13.75;;;7.30;99.90;;;;;;5085291;28;20040;-54
2022/11/28 04:26:18;;;;;;;18.45;16.30;;;7.40;99.90;;;;;;5087870;28;20040;-51
2022/11/28 04:28:46;;;;;;;13.10;11.73;;;7.40;99.90;;;;;;5081426;28;20374;-52
2022/11/28 04:31:14;;;;;;;19.27;16.02;;;7.50;99.90;;;;;;5083679;28;20048;-54
2022/11/28 04:33:43;;;;;;;17.92;16.02;;;7.60;99.90;;;;;;5080073;28;20036;-50
2022/11/28 04:36:10;;;;;;;18.52;15.60;;;7.60;99.90;;;;;;5080381;28;20048;-50
2022/11/28 04:38:38;;;;;;;17.90;16.05;;;7.60;99.90;;;;;;5082955;28;20047;-53
2022/11/28 04:41:13;;;;;;;18.75;15.77;;;7.60;99.90;;;;;;5081526;28;20047;-50
2022/11/28 04:43:44;;;;;;;17.70;16.00;;;7.60;99.90;;;;;;5085428;28;20059;-51
2022/11/28 04:46:17;;;;;;;19.77;16.55;;;7.60;99.90;;;;;;5084767;28;20165;-50
2022/11/28 04:48:43;;;;;;;18.70;16.75;;;7.60;99.90;;;;;;5085234;28;20500;-51
2022/11/28 04:51:09;;;;;;;19.50;17.45;;;7.60;99.90;;;;;;5085437;28;20486;-50
2022/11/28 04:53:42;;;;;;;19.40;16.88;;;7.70;99.90;;;;;;5083369;28;20039;-49
2022/11/28 04:56:18;;;;;;;18.55;16.65;;;7.60;99.90;;;;;;5081300;28;20455;-51
2022/11/28 04:58:47;;;;;;;18.05;16.25;;;7.60;99.90;;;;;;5081651;28;20222;-50
2022/11/28 05:01:17;;;;;;;21.08;18.40;;;7.70;99.90;;;;;;5080436;28;20165;-50
2022/11/28 05:03:43;;;;;;;18.90;16.90;;;7.70;99.90;;;;;;5085334;28;20036;-54
2022/11/28 05:06:09;;;;;;;19.35;17.40;;;7.70;99.90;;;;;;5083205;28;20079;-54
2022/11/28 05:08:35;;;;;;;19.77;17.58;;;7.80;99.90;;;;;;5082718;28;20047;-50
2022/11/28 05:11:00;;;;;;;20.95;18.75;;;7.80;99.90;;;;;;5082939;28;20540;-54
2022/11/28 05:13:26;;;;;;;20.17;17.80;;;7.70;99.90;;;;;;5081139;28;20681;-54
2022/11/28 05:15:51;;;;;;;21.25;18.88;;;7.70;99.90;;;;;;5087429;28;20032;-51
2022/11/28 05:18:17;;;;;;;20.92;18.85;;;7.80;99.90;;;;;;5083516;28;20036;-54
2022/11/28 05:20:43;;;;;;;25.40;19.38;;;7.80;99.90;;;;;;5082266;28;20127;-55
2022/11/28 05:23:09;;;;;;;20.23;17.95;;;7.80;99.90;;;;;;5083924;28;20492;-53
2022/11/28 05:25:38;;;;;;;20.55;18.45;;;7.80;99.90;;;;;;5080684;28;20121;-49
2022/11/28 05:28:04;;;;;;;19.67;17.60;;;7.80;99.90;;;;;;5079800;28;20122;-50
2022/11/28 05:30:30;;;;;;;21.58;19.33;;;7.70;99.90;;;;;;5084926;28;20047;-50
2022/11/28 05:32:58;;;;;;;19.63;17.63;;;7.80;99.90;;;;;;5065292;28;20136;-51
2022/11/28 05:35:24;;;;;;;19.65;17.60;;;7.70;99.90;;;;;;5085050;28;20117;-54
2022/11/28 05:37:49;;;;;;;19.67;16.55;;;7.80;99.90;;;;;;5087259;28;20121;-52
2022/11/28 05:40:15;;;;;;;20.55;16.38;;;7.70;99.90;;;;;;5086779;28;20486;-53
2022/11/28 05:42:40;;;;;;;17.00;15.30;;;7.70;99.90;;;;;;5085566;28;20059;-52
2022/11/28 05:45:07;;;;;;;18.38;15.93;;;7.80;99.90;;;;;;5081283;28;20040;-52
2022/11/28 05:47:32;;;;;;;17.50;15.70;;;7.70;99.90;;;;;;5081517;28;20126;-50
2022/11/28 05:49:58;;;;;;;16.65;14.88;;;7.70;99.90;;;;;;5081502;28;20127;-55
2022/11/28 05:52:24;;;;;;;17.20;14.77;;;7.70;99.90;;;;;;5083875;28;20044;-51
2022/11/28 05:54:49;;;;;;;16.80;15.15;;;7.70;99.90;;;;;;5084721;28;20040;-50
2022/11/28 05:57:15;;;;;;;16.42;14.07;;;7.70;99.90;;;;;;5083332;28;20139;-50
2022/11/28 05:59:41;;;;;;;16.08;14.43;;;7.70;99.90;;;;;;5085061;28;20071;-50
2022/11/28 06:02:07;;;;;;;16.05;13.95;;;7.70;99.90;;;;;;5086345;28;20097;-50
2022/11/28 06:04:32;;;;;;;15.55;13.50;;;7.70;99.90;;;;;;5079085;28;20044;-53
2022/11/28 06:06:58;;;;;;;15.23;13.63;;;7.70;99.90;;;;;;5084920;28;20028;-54
2022/11/28 06:09:24;;;;;;;16.92;13.65;;;7.70;99.90;;;;;;5090196;28;20048;-50
2022/11/28 06:11:49;;;;;;;15.57;13.98;;;7.70;99.90;;;;;;5091331;28;20047;-53
2022/11/28 06:14:15;;;;;;;17.15;13.75;;;7.70;99.90;;;;;;5089223;28;20048;-52
2022/11/28 06:16:42;;;;;;;16.17;12.80;;;7.70;99.90;;;;;;5090413;28;20086;-50
2022/11/28 06:19:10;;;;;;;14.52;12.73;;;7.70;99.90;;;;;;5092297;28;20521;-53
2022/11/28 06:21:36;;;;;;;14.25;12.77;;;7.70;99.90;;;;;;5089472;28;20081;-50
2022/11/28 06:24:02;;;;;;;15.63;13.40;;;7.70;99.90;;;;;;5087190;28;20040;-50
2022/11/28 06:26:27;;;;;;;15.70;13.77;;;7.60;99.90;;;;;;5089953;28;20106;-50
2022/11/28 06:28:56;;;;;;;14.50;13.00;;;7.70;99.90;;;;;;5089972;28;20044;-49
2022/11/28 06:31:26;;;;;;;14.30;12.73;;;7.70;99.90;;;;;;5088641;28;20067;-51
2022/11/28 06:33:52;;;;;;;14.30;12.82;;;7.70;99.90;;;;;;5093692;28;20052;-50
2022/11/28 06:36:18;;;;;;;15.95;13.10;;;7.70;99.90;;;;;;5091217;28;20114;-50
2022/11/28 06:38:44;;;;;;;16.13;13.57;;;7.70;99.90;;;;;;5087577;28;20605;-51
2022/11/28 06:41:13;;;;;;;15.50;13.77;;;7.70;99.90;;;;;;5083233;28;20048;-53
2022/11/28 06:43:39;;;;;;;15.40;13.77;;;7.70;99.90;;;;;;5088150;28;20040;-54
2022/11/28 06:46:09;;;;;;;17.05;14.60;;;7.70;99.90;;;;;;5089528;28;20114;-52
2022/11/28 06:48:35;;;;;;;18.10;14.65;;;7.70;99.90;;;;;;5093494;28;20054;-53
2022/11/28 06:51:02;;;;;;;15.73;14.18;;;7.70;99.90;;;;;;5092033;28;20482;-50
2022/11/28 06:53:28;;;;;;;18.35;13.30;;;7.70;99.90;;;;;;5086984;28;20075;-52
2022/11/28 06:55:54;;;;;;;15.85;14.15;;;7.70;99.90;;;;;;5088381;28;20083;-50
2022/11/28 06:58:19;;;;;;;15.25;13.63;;;7.70;99.90;;;;;;5091328;28;20036;-52
2022/11/28 07:00:45;;;;;;;16.60;14.93;;;7.70;99.90;;;;;;5088025;28;20085;-52
2022/11/28 07:03:12;;;;;;;17.20;12.98;;;7.80;99.90;;;;;;5088511;28;20130;-51
2022/11/28 07:05:38;;;;;;;18.00;14.45;;;7.60;99.90;;;;;;5086322;28;20048;-51
2022/11/28 07:08:04;;;;;;;16.35;14.63;;;7.60;99.90;;;;;;5086691;28;20075;-51
2022/11/28 07:10:30;;;;;;;16.08;14.38;;;7.70;99.90;;;;;;5087151;28;20040;-53
2022/11/28 07:12:57;;;;;;;16.63;14.73;;;7.70;99.90;;;;;;5087093;28;20730;-52
2022/11/28 07:15:24;;;;;;;16.00;14.40;;;7.70;99.90;;;;;;5088025;28;20044;-50
2022/11/28 07:17:50;;;;;;;18.13;15.25;;;7.70;99.90;;;;;;5085450;28;20123;-55
2022/11/28 07:20:16;;;;;;;17.77;15.85;;;7.70;99.90;;;;;;5088279;28;20457;-54
2022/11/28 07:22:42;;;;;;;17.73;15.82;;;;;;;;;;5084268;28;21236;-50
2022/11/28 07:25:09;;;;;;;17.85;15.98;;;7.80;99.90;;;;;;5083319;28;20531;-50
2022/11/28 07:27:35;;;;;;;18.55;16.65;;;7.90;99.90;;;;;;5088042;28;20071;-50
2022/11/28 07:30:01;;;;;;;18.95;17.05;;;7.70;99.90;;;;;;5087581;28;20036;-52
2022/11/28 07:32:26;;;;;;;19.05;17.05;;;8.00;99.90;;;;;;5094261;28;20406;-51
2022/11/28 07:34:52;;;;;;;18.80;16.85;;;7.80;99.90;;;;;;5095196;28;20036;-53
2022/11/28 07:37:18;;;;;;;19.15;17.15;;;8.00;99.90;;;;;;5095653;28;20048;-50
2022/11/28 07:39:44;;;;;;;18.02;16.17;;;7.70;99.90;;;;;;5094319;28;20043;-54
2022/11/28 07:42:10;;;;;;;19.33;17.42;;;7.80;99.90;;;;;;5093172;28;20120;-54
2022/11/28 07:44:36;;;;;;;18.45;16.58;;;7.70;99.90;;;;;;5094579;28;20497;-55
2022/11/28 07:47:02;;;;;;;18.58;16.65;;;7.70;99.90;;;;;;5087883;28;20040;-55
2022/11/28 07:49:28;;;;;;;19.33;17.25;;;7.70;99.90;;;;;;5088042;28;20401;-54
2022/11/28 07:51:54;;;;;;;18.80;16.77;;;7.70;99.90;;;;;;5087175;28;20163;-52
2022/11/28 07:54:20;;;;;;;19.38;16.65;;;7.70;99.90;;;;;;5088244;28;20183;-54
2022/11/28 07:56:45;;;;;;;19.38;17.38;;;7.70;99.90;;;;;;5086648;28;20187;-52
2022/11/28 07:59:11;;;;;;;20.80;18.70;;;7.70;99.90;;;;;;5088024;28;20127;-51
2022/11/28 08:01:37;;;;;;;20.35;18.27;;;7.70;99.90;;;;;;5085586;28;20072;-54
2022/11/28 08:04:04;;;;;;;21.13;18.88;;;7.80;99.90;;;;;;5086115;28;20485;-52
2022/11/28 08:06:30;;;;;;;22.95;20.48;;;7.70;99.90;;;;;;5087190;28;20040;-51
2022/11/28 08:08:59;;;;;;;22.92;20.52;;;7.80;99.90;;;;;;5086559;28;20040;-50
2022/11/28 08:11:27;;;;;;;22.33;19.92;;;7.80;99.90;;;;;;5084559;28;20067;-54
2022/11/28 08:13:52;;;;;;;;;;;7.80;99.90;;;;;;5086448;28;20074;-55
2022/11/28 08:16:20;;;;;;;22.92;20.20;;;7.80;99.90;;;;;;5083654;28;19924;-54
2022/11/28 08:18:47;;;;;;;23.80;20.95;;;7.80;99.90;;;;;;5083946;28;20040;-52
2022/11/28 08:21:16;;;;;;;21.25;18.98;;;7.80;99.90;;;;;;5084623;28;20036;-53
2022/11/28 08:23:45;;;;;;;23.63;20.95;;;7.80;99.90;;;;;;5088290;28;20056;-53
2022/11/28 08:26:14;;;;;;;22.63;20.27;;;7.80;99.90;;;;;;5083478;28;20402;-52
2022/11/28 08:28:40;;;;;;;23.42;20.98;;;7.80;99.90;;;;;;5084394;28;20044;-53
2022/11/28 08:31:11;;;;;;;26.17;21.55;;;7.80;99.90;;;;;;5081642;28;20039;-51
2022/11/28 08:33:37;;;;;;;23.85;21.35;;;7.80;99.90;;;;;;5079635;28;20090;-51
2022/11/28 08:36:05;;;;;;;23.13;20.63;;;7.80;99.90;;;;;;5066602;28;20469;-51
2022/11/28 08:38:30;;;;;;;23.20;20.77;;;7.80;99.90;;;;;;5085682;28;20047;-52
2022/11/28 08:41:04;;;;;;;22.10;19.80;;;7.80;99.90;;;;;;5082913;28;20432;-53
2022/11/28 08:43:32;;;;;;;22.83;20.42;;;7.80;99.90;;;;;;5083021;28;20067;-54
2022/11/28 08:45:58;;;;;;;23.52;20.98;;;7.80;99.90;;;;;;5065374;28;20422;-54
2022/11/28 08:48:23;;;;;;;22.45;20.02;;;7.80;99.90;;;;;;5089818;28;20359;-53
2022/11/28 08:50:49;;;;;;;24.05;21.30;;;7.80;99.90;;;;;;5089688;28;20089;-51
2022/11/28 08:53:15;;;;;;;25.63;22.98;;;7.80;99.90;;;;;;5085140;28;20058;-52
2022/11/28 08:55:43;;;;;;;23.08;20.70;;;7.90;99.90;;;;;;5086634;28;20090;-51
2022/11/28 08:58:09;;;;;;;22.33;19.95;;;7.80;99.90;;;;;;5085201;28;20040;-52
2022/11/28 09:00:34;;;;;;;21.55;19.45;;;7.80;99.90;;;;;;5084113;28;20044;-53
2022/11/28 09:03:00;;;;;;;22.15;19.85;;;7.90;99.90;;;;;;5082003;28;20044;-53
2022/11/28 09:05:27;;;;;;;22.15;19.85;;;7.90;99.90;;;;;;5080579;28;20097;-54
2022/11/28 09:07:53;;;;;;;20.88;18.70;;;7.90;99.90;;;;;;5080405;28;20052;-54
2022/11/28 09:10:19;;;;;;;22.80;20.25;;;7.90;99.90;;;;;;5087329;28;20405;-52
2022/11/28 09:12:45;;;;;;;25.15;22.65;;;7.80;99.90;;;;;;5077519;28;20044;-51
2022/11/28 09:15:10;;;;;;;21.65;19.45;;;8.00;99.90;;;;;;5084184;28;20123;-52
2022/11/28 09:17:36;;;;;;;21.48;19.27;;;8.10;99.90;;;;;;5074657;28;20047;-53
2022/11/28 09:20:03;;;;;;;22.45;20.15;;;7.90;99.90;;;;;;5081319;28;20071;-52
2022/11/28 09:22:29;;;;;;;27.27;24.63;;;;;;;;;;5081378;28;20035;-52
2022/11/28 09:24:54;;;;;;;21.38;19.17;;;8.00;99.90;;;;;;5077213;28;20445;-52
2022/11/28 09:27:20;;;;;;;20.98;18.88;;;7.90;99.90;;;;;;5073716;28;20132;-52
2022/11/28 09:29:45;;;;;;;20.80;18.80;;;7.90;99.90;;;;;;5068370;28;20052;-55
2022/11/28 09:32:11;;;;;;;19.52;17.63;;;7.90;99.90;;;;;;5070186;28;20472;-54
2022/11/28 09:34:36;;;;;;;21.17;19.17;;;8.00;99.90;;;;;;5074980;28;20043;-54
2022/11/28 09:37:02;;;;;;;21.05;18.95;;;8.00;99.90;;;;;;5078008;28;20036;-52
2022/11/28 09:39:28;;;;;;;20.52;18.52;;;7.90;99.90;;;;;;5077880;28;20036;-51
2022/11/28 09:42:02;;;;;;;21.30;19.20;;;8.00;99.90;;;;;;5077964;28;20130;-50
2022/11/28 09:44:46;;;;;;;18.52;16.83;;;7.90;99.90;;;;;;5074686;28;20038;-50
2022/11/28 09:47:31;;;;;;;20.30;18.38;;;8.00;99.90;;;;;;5082227;28;20576;-50
2022/11/28 09:50:06;;;;;;;18.98;17.17;;;8.00;99.90;;;;;;5078535;28;20048;-50
2022/11/28 09:53:01;;;;;;;18.50;16.70;;;8.00;99.90;;;;;;5078164;28;20383;-53
2022/11/28 09:55:36;;;;;;;18.83;16.92;;;8.00;99.90;;;;;;5079338;28;20048;-54
2022/11/28 09:58:15;;;;;;;18.23;16.33;;;8.00;99.90;;;;;;5080189;28;20059;-54
2022/11/28 10:00:50;;;;;;;17.35;15.55;;;8.00;99.90;;;;;;5079103;28;20044;-52
2022/11/28 10:03:15;;;;;;;17.38;15.57;;;8.00;99.90;;;;;;5080931;28;20473;-51
2022/11/28 10:05:54;;;;;;;16.05;14.45;;;8.00;99.90;;;;;;5077109;28;20083;-51
2022/11/28 10:08:37;;;;;;;16.52;14.93;;;8.00;99.90;;;;;;5079304;28;20478;-53
2022/11/28 10:11:21;;;;;;;15.98;14.43;;;8.00;99.90;;;;;;5077539;28;20040;-54
2022/11/28 10:14:06;;;;;;;15.85;14.20;;;8.10;99.90;;;;;;5073464;28;20596;-51
2022/11/28 10:16:53;;;;;;;15.75;14.15;;;8.10;99.90;;;;;;5075768;28;20055;-51
2022/11/28 10:19:35;;;;;;;16.35;14.68;;;8.10;99.90;;;;;;5075057;28;20512;-51
2022/11/28 10:22:01;;;;;;;16.55;14.95;;;;;;;;;;5074661;28;20036;-51
2022/11/28 10:24:37;;;;;;;15.60;14.20;;;8.20;99.90;;;;;;5070838;28;20052;-56
2022/11/28 10:27:04;;;;;;;15.45;14.05;;;8.10;99.90;;;;;;5071089;28;20043;-53
2022/11/28 10:29:39;;;;;;;16.10;14.55;;;8.10;99.90;;;;;;5072500;28;20089;-55
2022/11/28 10:32:06;;;;;;;14.40;13.00;;;8.20;99.90;;;;;;5082632;28;20054;-52
2022/11/28 10:34:41;;;;;;;14.40;12.90;;;8.20;99.90;;;;;;5084106;28;20047;-51
2022/11/28 10:37:14;;;;;;;13.82;12.43;;;8.10;99.90;;;;;;5079072;28;20075;-52
2022/11/28 10:39:43;;;;;;;13.95;12.48;;;8.20;99.90;;;;;;5083642;28;20044;-51
2022/11/28 10:42:24;;;;;;;13.73;12.32;;;8.20;99.90;;;;;;5078598;28;20052;-52
2022/11/28 10:45:01;;;;;;;14.75;13.20;;;8.20;99.90;;;;;;5081853;28;20101;-52
2022/11/28 10:47:44;;;;;;;12.95;11.70;;;8.20;99.90;;;;;;5073818;28;20036;-53
2022/11/28 10:50:38;;;;;;;13.00;11.57;;;8.20;99.90;;;;;;5078338;28;20136;-53
2022/11/28 10:53:16;;;;;;;13.38;12.07;;;8.20;99.90;;;;;;5077210;28;20044;-55
2022/11/28 10:55:45;;;;;;;13.18;11.88;;;8.20;99.90;;;;;;5079787;28;20088;-51
2022/11/28 10:58:26;;;;;;;13.32;12.02;;;8.20;99.90;;;;;;5082778;28;20091;-51
2022/11/28 11:00:56;;;;;;;12.45;11.35;;;8.20;99.90;;;;;;5078720;28;20036;-50
2022/11/28 11:03:34;;;;;;;12.18;11.07;;;8.20;99.90;;;;;;5083318;28;20044;-50
2022/11/28 11:06:01;;;;;;;13.02;11.82;;;8.30;99.90;;;;;;5097035;28;20093;-54
2022/11/28 11:08:29;;;;;;;11.60;10.60;;;8.30;99.90;;;;;;5084077;28;20055;-51
2022/11/28 11:11:13;;;;;;;;;;;8.30;99.90;;;;;;5078956;28;20043;-52
2022/11/28 11:14:02;;;;;;;12.50;11.20;;;8.30;99.90;;;;;;5077627;28;19924;-53
2022/11/28 11:16:54;;;;;;;12.85;11.57;;;8.40;99.90;;;;;;5080978;28;20051;-52
2022/11/28 11:19:30;;;;;;;12.35;11.27;;;8.40;99.90;;;;;;5073748;28;20075;-54
2022/11/28 11:22:18;;;;;;;11.20;10.30;;;8.40;99.90;;;;;;5077318;28;20036;-52
2022/11/28 11:25:02;;;;;;;11.05;9.95;;;8.40;99.90;;;;;;5081674;28;20116;-51
2022/11/28 11:27:29;;;;;;;11.88;10.70;;;8.40;99.90;;;;;;5077862;28;20071;-51
2022/11/28 11:29:55;;;;;;;12.10;11.00;;;8.40;99.90;;;;;;5079868;28;20043;-55
2022/11/28 11:32:29;;;;;;;12.05;10.95;;;8.40;99.90;;;;;;5081787;28;20028;-55
2022/11/28 11:34:57;;;;;;;12.73;11.43;;;8.40;99.90;;;;;;5077985;28;20563;-52
2022/11/28 11:37:32;;;;;;;11.85;10.85;;;8.40;99.90;;;;;;5082214;28;20039;-53
2022/11/28 11:39:59;;;;;;;10.48;9.48;;;8.40;99.90;;;;;;5080575;28;20131;-54
2022/11/28 11:42:27;;;;;;;11.27;10.17;;;8.40;99.90;;;;;;5083024;28;20048;-53
2022/11/28 11:44:53;;;;;;;11.32;10.13;;;8.40;99.90;;;;;;5083352;28;20367;-54
2022/11/28 11:47:38;;;;;;;10.30;9.40;;;8.40;99.90;;;;;;5084297;28;20048;-55
2022/11/28 11:50:04;;;;;;;11.23;10.00;;;8.40;99.90;;;;;;5085592;28;20524;-54
2022/11/28 11:52:30;;;;;;;11.73;10.48;;;8.40;99.90;;;;;;5078783;28;20068;-56
2022/11/28 11:54:56;;;;;;;10.35;9.35;;;8.40;99.90;;;;;;5080658;28;20087;-51
2022/11/28 11:57:26;;;;;;;10.85;9.80;;;8.40;99.90;;;;;;5078942;28;20052;-51
2022/11/28 12:00:08;;;;;;;9.73;8.82;;;8.40;99.90;;;;;;5079457;28;20041;-52
2022/11/28 12:02:42;;;;;;;11.27;10.27;;;8.40;99.90;;;;;;5079641;28;20055;-54
2022/11/28 12:05:23;;;;;;;10.70;9.70;;;8.40;99.90;;;;;;5073683;28;20047;-55
2022/11/28 12:08:13;;;;;;;10.43;9.18;;;8.40;99.90;;;;;;5079388;28;20055;-53
2022/11/28 12:10:45;;;;;;;10.88;9.88;;;8.40;99.90;;;;;;5080101;28;20401;-51
2022/11/28 12:13:18;;;;;;;9.70;8.90;;;8.40;99.90;;;;;;5077908;28;20066;-54
2022/11/28 12:15:52;;;;;;;11.05;9.95;;;8.40;99.90;;;;;;5078057;28;20067;-52
2022/11/28 12:18:46;;;;;;;9.93;9.13;;;8.40;99.90;;;;;;5078941;28;20055;-50
2022/11/28 12:21:45;;;;;;;10.57;9.60;;;8.40;99.90;;;;;;5075455;28;20040;-50
2022/11/28 12:24:19;;;;;;;12.82;10.27;;;8.40;99.90;;;;;;5059015;28;20040;-56
2022/11/28 12:27:08;;;;;;;10.27;9.27;;;8.40;99.90;;;;;;5079731;28;20051;-55
2022/11/28 12:29:55;;;;;;;10.02;9.05;;;8.40;99.90;;;;;;5077516;28;20071;-55
2022/11/28 12:32:29;;;;;;;11.15;9.90;;;8.40;99.90;;;;;;5077044;28;20036;-52
2022/11/28 12:35:04;;;;;;;10.82;9.85;;;8.40;99.90;;;;;;5074638;28;20051;-56
2022/11/28 12:37:57;;;;;;;9.73;8.82;;;8.40;99.90;;;;;;5080611;28;20070;-52
2022/11/28 12:40:47;;;;;;;10.65;9.60;;;8.30;99.90;;;;;;5083363;28;20044;-53
2022/11/28 12:43:29;;;;;;;10.90;9.82;;;8.40;99.90;;;;;;5081605;28;20052;-55
2022/11/28 12:46:19;;;;;;;11.10;10.10;;;8.30;99.90;;;;;;5081018;28;20125;-52
2022/11/28 12:49:23;;;;;;;11.60;10.50;;;8.40;99.90;;;;;;5079580;28;20043;-52
2022/11/28 12:52:09;;;;;;;10.90;9.90;;;8.30;99.90;;;;;;5080946;28;20093;-51
2022/11/28 12:54:49;;;;;;;11.32;10.32;;;8.40;99.90;;;;;;5074676;28;20450;-53
2022/11/28 12:57:32;;;;;;;10.88;9.80;;;8.40;99.90;;;;;;5076581;28;20445;-54
2022/11/28 13:00:05;;;;;;;11.23;10.23;;;8.40;99.90;;;;;;5080622;28;20063;-53
2022/11/28 13:03:09;;;;;;;11.10;10.10;;;8.40;99.90;;;;;;5081025;28;20056;-54
2022/11/28 13:05:46;;;;;;;11.30;10.30;;;8.40;99.90;;;;;;5018230;28;20907;-53
2022/11/28 13:08:28;;;;;;;11.13;10.13;;;8.40;99.90;;;;;;5015004;28;20148;-50